Time;durP1;ratioP1;P1;durP2;ratioP2;P2;SDS_P1;SDS_P2;PMS_P1;PMS_P2;Temp;Humidity;BMP_temperature;BMP_pressure;BME280_temperature;BME280_humidity;BME280_pressure;Samples;Min_cycle;Max_cycle;Signal;HPM_P1;HPM_P2
2023/03/31 13:15:14;;;;;;;8.07;2.70;;;;;;;;;;4808130;29;20151;-80
2023/03/31 13:26:48;;;;;;;;;;;;;;;;;;;;;
2023/03/31 16:16:39;;;;;;;12.35;1.52;;;;;;;;;;4944227;28;20727;-79
2023/03/31 16:19:40;;;;;;;6.80;1.42;;;;;;;;;;4926859;29;20875;-79
2023/03/31 16:22:15;;;;;;;10.35;1.13;;;;;;;;;;4920312;29;20086;-79
2023/03/31 16:25:05;;;;;;;11.02;1.27;;;;;;;;;;4945384;29;20576;-79
2023/03/31 16:41:51;;;;;;;8.35;1.63;;;;;;;;;;4996431;23;20061;-82
2023/03/31 16:44:17;;;;;;;6.50;1.17;;;;;;;;;;4926758;29;20122;-82
2023/03/31 16:49:52;;;;;;;9.38;1.20;;;;;;;;;;4926272;26;20055;-81
2023/03/31 16:52:25;;;;;;;18.95;2.10;;;;;;;;;;4944807;29;20058;-81
2023/03/31 16:58:25;;;;;;;12.00;2.22;;;;;;;;;;4947957;23;20070;-81
2023/03/31 17:01:00;;;;;;;8.15;2.00;;;;;;;;;;4939490;29;20054;-81
2023/03/31 17:03:52;;;;;;;7.22;1.75;;;;;;;;;;4942462;29;20040;-81
2023/03/31 17:16:42;;;;;;;12.90;3.60;;;;;;;;;;4801797;23;20045;-79
2023/03/31 17:21:44;;;;;;;9.70;3.22;;;;;;;;;;5250729;23;20086;-80
2023/03/31 17:24:10;;;;;;;12.77;3.08;;;;;;;;;;4945448;29;20483;-82
2023/03/31 17:26:36;;;;;;;16.17;2.85;;;;;;;;;;4946403;29;20078;-80
2023/03/31 17:29:02;;;;;;;8.82;1.85;;;;;;;;;;4936879;29;20043;-82
2023/03/31 17:31:29;;;;;;;7.47;1.45;;;;;;;;;;4952445;29;20106;-83
2023/03/31 17:33:56;;;;;;;5.47;0.77;;;;;;;;;;4953703;29;20040;-85
2023/03/31 17:36:22;;;;;;;3.05;0.60;;;;;;;;;;4949919;29;20054;-85
2023/03/31 17:38:48;;;;;;;3.60;1.05;;;;;;;;;;4947551;29;20155;-81
2023/03/31 17:41:16;;;;;;;4.40;0.60;;;;;;;;;;4950768;29;20141;-82
2023/03/31 17:43:49;;;;;;;4.10;0.73;;;;;;;;;;4947074;29;20046;-83
2023/03/31 17:46:16;;;;;;;3.67;0.60;;;;;;;;;;4947162;29;20761;-83
2023/03/31 17:48:42;;;;;;;1.60;0.20;;;;;;;;;;4936786;29;20046;-79
2023/03/31 17:51:13;;;;;;;3.42;0.40;;;;;;;;;;4946940;29;20549;-79
2023/03/31 17:53:40;;;;;;;4.68;0.75;;;;;;;;;;4946194;29;20039;-80
2023/03/31 17:56:06;;;;;;;4.97;1.23;;;;;;;;;;4949169;28;20078;-79
2023/03/31 18:12:58;;;;;;;;;;;;;;;;;;;;;
2023/03/31 18:15:32;;;;;;;9.15;1.38;;;;;;;;;;4923985;29;20047;-80
2023/03/31 18:26:19;;;;;;;6.38;1.65;;;;;;;;;;4701830;26;20116;-79
2023/03/31 18:40:01;;;;;;;11.68;1.63;;;;;;;;;;4944327;29;20428;-78
2023/03/31 18:42:36;;;;;;;8.85;1.35;;;;;;;;;;4951314;29;20027;-79
2023/03/31 18:49:21;;;;;;;;;;;;;;;;;;;;;
2023/03/31 18:58:23;;;;;;;4.15;0.63;;;;;;;;;;4976056;28;20069;-78
2023/03/31 19:01:31;;;;;;;;;;;;;;;;;;;;;
2023/03/31 19:03:57;;;;;;;8.15;1.42;;;;;;;;;;4985863;28;20395;-78
2023/03/31 19:06:23;;;;;;;1.95;0.50;;;;;;;;;;4969557;28;20035;-78
2023/03/31 19:09:28;;;;;;;;;;;;;;;;;;;;;
2023/03/31 19:11:58;;;;;;;4.82;1.25;;;;;;;;;;4983151;28;20072;-78
2023/03/31 19:14:29;;;;;;;3.42;0.93;;;;;;;;;;4965666;28;20058;-78
